Bangkok (Suvarnabhumi), Thailand

12:44 AM ICT on February 09, 2016 (GMT +0700)
Bangkok (Suvarnabhumi) | | Change Station
CLOSE
Current Station
Airport
Location: Bangkok (Suvarnabhumi),
Elevation: 7 ft
Nearby Weather Stations

Elev 7 ft 13.36 °N, 100.98 °E | Updated 14 minutes ago

Clear
Clear
66 °F
Feels Like 66 °F
N
4
Wind Variable Wind from ENE

Today
High -- | Low -- °F
--% Chance of Precip.
Yesterday
High -- | Low -- °F
Precip. -- in
Pressure 30.01 in
Visibility 4.3 miles
Clouds
Dew Point 50 °F
Humidity 56%
Rainfall 0.00 in
Snow Depth Not available.
6:41 AM 6:19 PM
New Moon, 0% visible
METAR VTBS 081730Z 06003KT 7000 NSC 19/10 Q1016 NOSIG
Pressure 30.01 in
Visibility 4.3 miles
Clouds
Dew Point 50 °F
Humidity 56%
Rainfall 0.00 in
Snow Depth Not available.
6:41 AM 6:19 PM
New Moon, 0% visible
METAR VTBS 081730Z 06003KT 7000 NSC 19/10 Q1016 NOSIG

10-Day Weather Forecast

No radar image for this location.
×

Almanac

Astronomy

Feb. 09, 2016 Rise Set
Actual Time
Civil Twilight
Nautical Twilight
Astronomical Twilight
Moon
Length of Visible Light
Length of Day
Tomorrow will be .
, % of the Moon is Illuminated

Today's Extremes

Country Highs Country Lows

Community

WunderPhotos

Upload Photos

1,891,476 photos uploaded!

WunderBlog® & News

Nearby

Air Quality

  Air Quality AQ Index Pollutant
Not available.

Snow Depth

Station Depth Elevation

Earthquake Activity

City Distance Mag. Time & Date
Minimum magnitude displayed is 2.5.

Coastal Water Temperatures

Place Temperature

Stations

Nearby Weather Stations

Station Location Temp. Windchill Dew Point Humidity Wind Precip. Elev Updated Type